Time;durP1;ratioP1;P1;durP2;ratioP2;P2;SDS_P1;SDS_P2;PMS_P1;PMS_P2;Temp;Humidity;BMP_temperature;BMP_pressure;BME280_temperature;BME280_humidity;BME280_pressure;Samples;Min_cycle;Max_cycle;Signal;HPM_P1;HPM_P2
2023/05/20 00:00:28;;;;;;;12.85;4.40;;;;;;;;;;4970413;28;25083;-76
2023/05/20 00:02:56;;;;;;;11.88;4.00;;;;;;;;;;4968977;28;25056;-74
2023/05/20 00:05:22;;;;;;;11.13;3.65;;;;;;;;;;4969393;28;25051;-75
2023/05/20 00:07:48;;;;;;;11.45;4.70;;;;;;;;;;4971088;28;25051;-75
2023/05/20 00:10:14;;;;;;;12.50;4.03;;;;;;;;;;4970149;28;25152;-75
2023/05/20 00:12:40;;;;;;;8.43;4.53;;;;;;;;;;4969025;28;25043;-74
2023/05/20 00:15:06;;;;;;;8.93;4.15;;;;;;;;;;4971438;28;25099;-75
2023/05/20 00:17:32;;;;;;;11.48;3.50;;;;;;;;;;4968478;28;25148;-74
2023/05/20 00:19:59;;;;;;;9.75;4.20;;;;;;;;;;4970723;28;25110;-75
2023/05/20 00:22:25;;;;;;;10.25;4.00;;;;;;;;;;4970516;28;25085;-75
2023/05/20 00:24:51;;;;;;;15.25;5.22;;;;;;;;;;4971332;28;25072;-74
2023/05/20 00:27:17;;;;;;;9.93;3.90;;;;;;;;;;4970394;28;25071;-75
2023/05/20 00:29:42;;;;;;;12.23;3.95;;;;;;;;;;4967274;28;25071;-76
2023/05/20 00:32:08;;;;;;;9.23;4.28;;;;;;;;;;4968853;28;25064;-76
2023/05/20 00:34:35;;;;;;;8.45;4.00;;;;;;;;;;4970799;28;25081;-74
2023/05/20 00:37:01;;;;;;;9.25;4.00;;;;;;;;;;4969462;28;25103;-75
2023/05/20 00:39:28;;;;;;;9.43;4.38;;;;;;;;;;4972068;28;25078;-75
2023/05/20 00:41:55;;;;;;;15.48;4.75;;;;;;;;;;4974231;28;25077;-77
2023/05/20 00:44:23;;;;;;;9.73;4.20;;;;;;;;;;4975174;28;25072;-75
2023/05/20 00:46:49;;;;;;;13.05;4.25;;;;;;;;;;4975418;28;25133;-75
2023/05/20 00:49:15;;;;;;;12.40;3.80;;;;;;;;;;4974792;28;25053;-76
2023/05/20 00:51:41;;;;;;;9.73;4.65;;;;;;;;;;4970023;28;25058;-73
2023/05/20 00:54:07;;;;;;;10.60;4.45;;;;;;;;;;4971942;28;25069;-72
2023/05/20 00:56:33;;;;;;;11.93;4.47;;;;;;;;;;4973315;28;25054;-76
2023/05/20 00:58:59;;;;;;;8.38;4.13;;;;;;;;;;4973439;28;25067;-76
2023/05/20 01:01:25;;;;;;;14.32;4.97;;;;;;;;;;4972772;28;25103;-73
2023/05/20 01:03:51;;;;;;;16.17;5.75;;;;;;;;;;4969866;28;25074;-75
2023/05/20 01:06:17;;;;;;;13.05;4.28;;;;;;;;;;4969768;28;25098;-74
2023/05/20 01:08:43;;;;;;;12.10;4.38;;;;;;;;;;4969166;28;25102;-76
2023/05/20 01:11:20;;;;;;;11.63;4.45;;;;;;;;;;4969892;28;25069;-74
2023/05/20 01:13:47;;;;;;;9.70;4.75;;;;;;;;;;4968322;28;25067;-76
2023/05/20 01:16:14;;;;;;;9.00;4.82;;;;;;;;;;4969800;28;25128;-76
2023/05/20 01:18:42;;;;;;;10.57;4.78;;;;;;;;;;4974876;28;25147;-73
2023/05/20 01:21:10;;;;;;;11.45;5.35;;;;;;;;;;4969112;28;25071;-75
2023/05/20 01:23:40;;;;;;;9.73;4.78;;;;;;;;;;4970005;28;25074;-75
2023/05/20 01:26:06;;;;;;;8.23;4.57;;;;;;;;;;4970646;28;25079;-76
2023/05/20 01:28:32;;;;;;;11.43;5.25;;;;;;;;;;4976702;28;25061;-74
2023/05/20 01:31:00;;;;;;;11.95;4.68;;;;;;;;;;4970277;28;25057;-77
2023/05/20 01:33:28;;;;;;;10.05;4.78;;;;;;;;;;4970388;28;25067;-75
2023/05/20 01:35:54;;;;;;;14.15;4.75;;;;;;;;;;4971841;28;25130;-77
2023/05/20 01:38:21;;;;;;;11.93;5.80;;;;;;;;;;4967848;28;25070;-75
2023/05/20 01:40:47;;;;;;;12.82;4.60;;;;;;;;;;4971632;28;25074;-76
2023/05/20 01:43:14;;;;;;;12.82;5.60;;;;;;;;;;4977640;28;25068;-76
2023/05/20 01:45:43;;;;;;;12.48;5.10;;;;;;;;;;4974251;28;25048;-76
2023/05/20 01:48:12;;;;;;;11.23;4.75;;;;;;;;;;4976354;28;25061;-76
2023/05/20 01:50:38;;;;;;;13.18;4.97;;;;;;;;;;4977082;28;25112;-76
2023/05/20 01:53:07;;;;;;;14.32;5.07;;;;;;;;;;4974021;28;25074;-75
2023/05/20 01:55:33;;;;;;;11.32;4.30;;;;;;;;;;4973027;28;25046;-75
2023/05/20 01:57:59;;;;;;;8.90;4.72;;;;;;;;;;4972011;28;25071;-75
2023/05/20 02:00:25;;;;;;;10.18;4.93;;;;;;;;;;4972040;28;25056;-75
2023/05/20 02:02:51;;;;;;;9.18;4.88;;;;;;;;;;4972119;28;25074;-77
2023/05/20 02:05:17;;;;;;;11.15;5.50;;;;;;;;;;4973270;28;25072;-75
2023/05/20 02:07:43;;;;;;;12.70;4.90;;;;;;;;;;4970559;28;25083;-75
2023/05/20 02:10:09;;;;;;;10.30;5.45;;;;;;;;;;4974985;28;25098;-75
2023/05/20 02:12:35;;;;;;;13.38;4.97;;;;;;;;;;4973923;28;25135;-75
2023/05/20 02:15:01;;;;;;;11.10;4.82;;;;;;;;;;4969366;28;25066;-76
2023/05/20 02:17:27;;;;;;;17.42;5.45;;;;;;;;;;4973428;28;25094;-74
2023/05/20 02:19:53;;;;;;;11.85;5.13;;;;;;;;;;4973385;28;25166;-75
2023/05/20 02:22:19;;;;;;;9.68;5.05;;;;;;;;;;4972543;28;24911;-74
2023/05/20 02:24:45;;;;;;;11.48;5.20;;;;;;;;;;4974894;28;25061;-73
2023/05/20 02:27:11;;;;;;;13.20;4.53;;;;;;;;;;4972925;28;25160;-74
2023/05/20 02:29:37;;;;;;;9.90;4.95;;;;;;;;;;4979504;28;25094;-73
2023/05/20 02:32:03;;;;;;;10.85;4.90;;;;;;;;;;4973360;28;25060;-75
2023/05/20 02:34:30;;;;;;;11.93;5.22;;;;;;;;;;4973092;28;25068;-73
2023/05/20 02:36:56;;;;;;;12.68;5.28;;;;;;;;;;4973285;28;25081;-75
2023/05/20 02:39:22;;;;;;;12.73;5.38;;;;;;;;;;4972168;28;25059;-72
2023/05/20 02:41:48;;;;;;;13.10;5.45;;;;;;;;;;4975628;28;25055;-77
2023/05/20 02:44:14;;;;;;;10.70;5.13;;;;;;;;;;4972720;28;25058;-73
2023/05/20 02:46:40;;;;;;;17.55;5.82;;;;;;;;;;4973494;28;25121;-74
2023/05/20 02:49:06;;;;;;;16.10;6.55;;;;;;;;;;4974314;28;25106;-75
2023/05/20 02:51:32;;;;;;;10.00;5.40;;;;;;;;;;4971924;28;25057;-73
2023/05/20 02:53:58;;;;;;;13.32;6.68;;;;;;;;;;4977956;28;25055;-76
2023/05/20 02:56:24;;;;;;;14.13;5.40;;;;;;;;;;4977900;28;25068;-74
2023/05/20 02:58:50;;;;;;;14.23;6.25;;;;;;;;;;4979418;28;25061;-75
2023/05/20 03:01:16;;;;;;;10.50;5.75;;;;;;;;;;4973852;28;25120;-76
2023/05/20 03:03:42;;;;;;;13.18;4.78;;;;;;;;;;4972014;28;25069;-77
2023/05/20 03:06:08;;;;;;;15.98;6.05;;;;;;;;;;4974278;28;25062;-75
2023/05/20 03:08:35;;;;;;;7.88;5.00;;;;;;;;;;4974008;28;25109;-74
2023/05/20 03:11:01;;;;;;;11.25;5.55;;;;;;;;;;4976414;28;25074;-76
2023/05/20 03:13:27;;;;;;;11.48;5.07;;;;;;;;;;4974741;28;25071;-75
2023/05/20 03:15:53;;;;;;;13.85;5.70;;;;;;;;;;4969348;28;25048;-76
2023/05/20 03:18:19;;;;;;;9.35;5.57;;;;;;;;;;4972731;28;25063;-75
2023/05/20 03:20:45;;;;;;;11.07;5.57;;;;;;;;;;4971554;28;25129;-75
2023/05/20 03:23:11;;;;;;;15.25;6.40;;;;;;;;;;4986485;28;25143;-76
2023/05/20 03:25:38;;;;;;;11.05;5.63;;;;;;;;;;4969939;28;25066;-77
2023/05/20 03:28:05;;;;;;;10.38;6.20;;;;;;;;;;4970636;28;25089;-74
2023/05/20 03:30:31;;;;;;;15.50;6.28;;;;;;;;;;4971293;28;25143;-75
2023/05/20 03:32:57;;;;;;;17.17;6.60;;;;;;;;;;4967534;28;25077;-74
2023/05/20 03:35:23;;;;;;;11.85;5.30;;;;;;;;;;4967117;28;25074;-75
2023/05/20 03:37:52;;;;;;;11.35;6.03;;;;;;;;;;4971919;28;25063;-75
2023/05/20 03:40:22;;;;;;;14.20;6.57;;;;;;;;;;4974398;28;25056;-74
2023/05/20 03:42:49;;;;;;;13.65;5.57;;;;;;;;;;4969539;28;25093;-73
2023/05/20 03:45:15;;;;;;;14.80;5.68;;;;;;;;;;4970534;28;25075;-75
2023/05/20 03:47:41;;;;;;;16.35;6.53;;;;;;;;;;4968377;28;25105;-73
2023/05/20 03:50:08;;;;;;;13.77;5.75;;;;;;;;;;4971512;28;25086;-74
2023/05/20 03:52:34;;;;;;;16.67;6.20;;;;;;;;;;4971006;28;25070;-73
2023/05/20 03:55:00;;;;;;;12.50;6.18;;;;;;;;;;4970741;28;25144;-75
2023/05/20 03:57:26;;;;;;;13.52;6.07;;;;;;;;;;4974290;28;25077;-71
2023/05/20 03:59:52;;;;;;;13.15;5.80;;;;;;;;;;4982226;28;25104;-76
2023/05/20 04:02:17;;;;;;;12.77;5.93;;;;;;;;;;4974844;28;25089;-74
2023/05/20 04:04:44;;;;;;;13.52;5.70;;;;;;;;;;4971065;28;25067;-77
2023/05/20 04:07:10;;;;;;;12.13;6.43;;;;;;;;;;4969579;28;25075;-75
2023/05/20 04:09:36;;;;;;;16.70;6.35;;;;;;;;;;4967163;28;25049;-77
2023/05/20 04:12:02;;;;;;;10.38;5.53;;;;;;;;;;4968884;28;25071;-75
2023/05/20 04:14:28;;;;;;;9.23;5.65;;;;;;;;;;4970693;28;25063;-74
2023/05/20 04:16:55;;;;;;;13.43;6.35;;;;;;;;;;4970657;28;25101;-77
2023/05/20 04:19:22;;;;;;;18.00;6.65;;;;;;;;;;4972893;28;25071;-76
2023/05/20 04:21:49;;;;;;;17.65;6.50;;;;;;;;;;4971655;28;25101;-74
2023/05/20 04:24:15;;;;;;;11.43;5.50;;;;;;;;;;4973647;28;25063;-74
2023/05/20 04:26:41;;;;;;;11.32;5.53;;;;;;;;;;4972954;28;25107;-75
2023/05/20 04:29:07;;;;;;;17.20;5.85;;;;;;;;;;4978706;28;25046;-77
2023/05/20 04:31:33;;;;;;;13.07;5.13;;;;;;;;;;4973015;28;25070;-76
2023/05/20 04:33:59;;;;;;;14.73;6.10;;;;;;;;;;4971256;28;25186;-73
2023/05/20 04:36:27;;;;;;;18.38;5.68;;;;;;;;;;4969240;28;25076;-72
2023/05/20 04:38:53;;;;;;;9.10;4.82;;;;;;;;;;4969658;28;25065;-72
2023/05/20 04:41:19;;;;;;;12.20;6.07;;;;;;;;;;4968538;28;25103;-74
2023/05/20 04:43:45;;;;;;;11.30;5.40;;;;;;;;;;4974498;28;25071;-74
2023/05/20 04:46:11;;;;;;;16.38;5.72;;;;;;;;;;4970179;28;25057;-74
2023/05/20 04:48:37;;;;;;;16.35;6.22;;;;;;;;;;4968313;28;25161;-76
2023/05/20 04:51:03;;;;;;;11.65;5.68;;;;;;;;;;4969188;28;25071;-75
2023/05/20 04:53:29;;;;;;;11.02;5.50;;;;;;;;;;4977267;28;25071;-75
2023/05/20 04:55:56;;;;;;;9.02;5.28;;;;;;;;;;4968931;28;25087;-73
2023/05/20 04:58:23;;;;;;;12.82;5.03;;;;;;;;;;4973891;28;25107;-76
2023/05/20 05:00:50;;;;;;;13.02;5.50;;;;;;;;;;4972674;28;25067;-76
2023/05/20 05:03:16;;;;;;;10.45;5.00;;;;;;;;;;4968906;28;25068;-72
2023/05/20 05:05:42;;;;;;;11.13;5.15;;;;;;;;;;4971969;28;25120;-75
2023/05/20 05:08:10;;;;;;;7.82;4.53;;;;;;;;;;4979732;28;25059;-75
2023/05/20 05:10:36;;;;;;;12.88;4.50;;;;;;;;;;4977582;28;25090;-76
2023/05/20 05:13:02;;;;;;;11.88;5.07;;;;;;;;;;4969268;28;25077;-73
2023/05/20 05:15:28;;;;;;;13.48;5.55;;;;;;;;;;4972229;28;25168;-75
2023/05/20 05:17:55;;;;;;;13.15;5.50;;;;;;;;;;4972240;28;25065;-75
2023/05/20 05:20:21;;;;;;;10.88;5.47;;;;;;;;;;4974780;28;25070;-75
2023/05/20 05:22:49;;;;;;;12.18;5.40;;;;;;;;;;4972419;28;25070;-76
2023/05/20 05:25:15;;;;;;;9.65;5.13;;;;;;;;;;4973750;28;25152;-75
2023/05/20 05:27:41;;;;;;;11.40;5.85;;;;;;;;;;4972520;28;25059;-74
2023/05/20 05:30:07;;;;;;;11.57;5.07;;;;;;;;;;4971591;28;25084;-75
2023/05/20 05:32:33;;;;;;;9.10;5.07;;;;;;;;;;4972787;28;25126;-74
2023/05/20 05:34:59;;;;;;;10.80;5.95;;;;;;;;;;4971000;28;25072;-75
2023/05/20 05:37:25;;;;;;;8.88;4.60;;;;;;;;;;4973596;28;25097;-73
2023/05/20 05:39:52;;;;;;;10.68;5.60;;;;;;;;;;4970633;28;25079;-76
2023/05/20 05:42:17;;;;;;;12.57;6.00;;;;;;;;;;4976030;28;25065;-76
2023/05/20 05:44:43;;;;;;;11.48;4.97;;;;;;;;;;4973730;28;25089;-76
2023/05/20 05:47:10;;;;;;;11.60;5.88;;;;;;;;;;4974042;28;25058;-73
2023/05/20 05:49:36;;;;;;;8.77;5.45;;;;;;;;;;4972705;28;25108;-73
2023/05/20 05:52:02;;;;;;;13.23;5.22;;;;;;;;;;4973590;28;25067;-74
2023/05/20 05:54:28;;;;;;;9.32;5.15;;;;;;;;;;4973377;28;25067;-77
2023/05/20 05:56:57;;;;;;;12.88;5.13;;;;;;;;;;4972966;28;25068;-78
2023/05/20 05:59:23;;;;;;;11.27;5.30;;;;;;;;;;4972571;28;25073;-73
2023/05/20 06:01:49;;;;;;;11.15;5.47;;;;;;;;;;4972328;28;25082;-73
2023/05/20 06:04:15;;;;;;;8.55;4.53;;;;;;;;;;4975895;28;25064;-72
2023/05/20 06:06:41;;;;;;;11.40;5.25;;;;;;;;;;4972407;28;25065;-75
2023/05/20 06:09:07;;;;;;;12.93;5.35;;;;;;;;;;4980142;28;25078;-76
2023/05/20 06:11:33;;;;;;;9.00;4.40;;;;;;;;;;4977428;28;25068;-75
2023/05/20 06:14:01;;;;;;;12.77;4.72;;;;;;;;;;4973885;28;25077;-76
2023/05/20 06:16:27;;;;;;;13.25;5.22;;;;;;;;;;4972397;28;25083;-75
2023/05/20 06:18:55;;;;;;;12.50;4.85;;;;;;;;;;4971615;28;25075;-77
2023/05/20 06:21:22;;;;;;;12.40;5.30;;;;;;;;;;4972281;28;25058;-76
2023/05/20 06:23:48;;;;;;;11.70;4.60;;;;;;;;;;4974645;28;25149;-76
2023/05/20 06:26:14;;;;;;;9.90;4.70;;;;;;;;;;4969235;28;25084;-73
2023/05/20 06:28:40;;;;;;;9.68;5.10;;;;;;;;;;4971681;28;25072;-73
2023/05/20 06:31:06;;;;;;;9.55;4.80;;;;;;;;;;4971776;28;25074;-76
2023/05/20 06:33:32;;;;;;;12.18;4.65;;;;;;;;;;4975916;28;25082;-75
2023/05/20 06:36:00;;;;;;;9.30;4.03;;;;;;;;;;4971777;28;25078;-75
2023/05/20 06:38:26;;;;;;;8.65;4.22;;;;;;;;;;4971495;28;25100;-76
2023/05/20 06:40:52;;;;;;;10.38;4.55;;;;;;;;;;4973074;28;25091;-79
2023/05/20 06:43:18;;;;;;;7.57;4.93;;;;;;;;;;4970925;28;26230;-75
2023/05/20 06:45:44;;;;;;;11.32;4.68;;;;;;;;;;4971182;28;25083;-74
2023/05/20 06:48:10;;;;;;;9.20;4.35;;;;;;;;;;4971146;28;25064;-77
2023/05/20 06:50:36;;;;;;;6.75;4.22;;;;;;;;;;4972250;28;25094;-74
2023/05/20 06:53:03;;;;;;;7.90;4.10;;;;;;;;;;4969356;28;25124;-74
2023/05/20 06:55:29;;;;;;;9.95;4.25;;;;;;;;;;4972090;28;25111;-74
2023/05/20 06:57:55;;;;;;;9.68;4.28;;;;;;;;;;4970471;28;25051;-77
2023/05/20 07:00:21;;;;;;;10.05;4.35;;;;;;;;;;4970326;28;25055;-75
2023/05/20 07:02:47;;;;;;;7.72;4.20;;;;;;;;;;4970009;28;25083;-76
2023/05/20 07:05:13;;;;;;;10.70;3.60;;;;;;;;;;4972558;28;25050;-76
2023/05/20 07:07:39;;;;;;;9.40;4.20;;;;;;;;;;4969212;28;25052;-76
2023/05/20 07:10:05;;;;;;;6.45;3.72;;;;;;;;;;4972910;28;25138;-75
2023/05/20 07:12:32;;;;;;;10.95;3.40;;;;;;;;;;4979441;28;25081;-76
2023/05/20 07:14:58;;;;;;;10.35;3.97;;;;;;;;;;4981705;28;25086;-75
2023/05/20 07:17:24;;;;;;;8.10;4.03;;;;;;;;;;4982268;28;25073;-74
2023/05/20 07:19:51;;;;;;;8.70;3.72;;;;;;;;;;4973096;28;25137;-75
2023/05/20 07:22:17;;;;;;;5.70;3.47;;;;;;;;;;4975680;28;25147;-74
2023/05/20 07:24:43;;;;;;;7.15;3.67;;;;;;;;;;4972671;28;25075;-75
2023/05/20 07:27:09;;;;;;;6.93;3.80;;;;;;;;;;4975298;28;25053;-76
2023/05/20 07:29:35;;;;;;;4.95;3.08;;;;;;;;;;4971229;28;25123;-76
2023/05/20 07:32:02;;;;;;;14.25;4.32;;;;;;;;;;4971578;28;25059;-73
2023/05/20 07:34:28;;;;;;;7.20;4.13;;;;;;;;;;4972031;28;25135;-78
2023/05/20 07:36:55;;;;;;;7.72;3.08;;;;;;;;;;4971407;28;25066;-78
2023/05/20 07:39:22;;;;;;;8.57;3.20;;;;;;;;;;4970319;28;25063;-74
2023/05/20 07:41:48;;;;;;;8.68;2.90;;;;;;;;;;4973840;28;25069;-75
2023/05/20 07:44:14;;;;;;;6.93;3.10;;;;;;;;;;4976992;28;25086;-72
2023/05/20 07:46:40;;;;;;;7.55;3.53;;;;;;;;;;4970411;28;25070;-78
2023/05/20 07:49:07;;;;;;;4.07;3.10;;;;;;;;;;4982890;28;25070;-74
2023/05/20 07:51:33;;;;;;;6.00;3.30;;;;;;;;;;4970287;28;25059;-75
2023/05/20 07:53:59;;;;;;;6.15;2.72;;;;;;;;;;4976466;28;25095;-73
2023/05/20 07:56:25;;;;;;;7.13;2.63;;;;;;;;;;4972405;28;25140;-77
2023/05/20 07:58:54;;;;;;;8.48;3.25;;;;;;;;;;4973495;28;25098;-78
2023/05/20 08:01:20;;;;;;;6.88;3.30;;;;;;;;;;4977273;28;25070;-76
2023/05/20 08:03:46;;;;;;;5.00;3.13;;;;;;;;;;4977881;28;25052;-78
2023/05/20 08:06:12;;;;;;;5.72;2.60;;;;;;;;;;4971565;28;25072;-76
2023/05/20 08:08:40;;;;;;;5.00;3.10;;;;;;;;;;4977266;28;25066;-77
2023/05/20 08:11:06;;;;;;;5.82;3.10;;;;;;;;;;4984681;28;25078;-76
2023/05/20 08:13:32;;;;;;;7.60;2.90;;;;;;;;;;4984519;28;25111;-74
2023/05/20 08:15:58;;;;;;;6.75;3.22;;;;;;;;;;4975039;28;25075;-74
2023/05/20 08:18:26;;;;;;;7.43;2.88;;;;;;;;;;4985239;28;25091;-79
2023/05/20 08:20:52;;;;;;;4.75;2.63;;;;;;;;;;4983635;28;25167;-77
2023/05/20 08:23:18;;;;;;;6.18;2.83;;;;;;;;;;4975678;28;25140;-76
2023/05/20 08:25:45;;;;;;;5.22;2.38;;;;;;;;;;4971125;28;25086;-75
2023/05/20 08:28:11;;;;;;;7.10;2.47;;;;;;;;;;4968541;28;25146;-81
2023/05/20 08:30:37;;;;;;;7.88;2.47;;;;;;;;;;4971116;28;25128;-77
2023/05/20 08:33:03;;;;;;;6.10;2.30;;;;;;;;;;4970090;28;25053;-76
2023/05/20 08:35:29;;;;;;;9.02;2.55;;;;;;;;;;4972442;28;25075;-75
2023/05/20 08:37:55;;;;;;;4.70;2.15;;;;;;;;;;4972285;28;25135;-78
2023/05/20 08:40:22;;;;;;;5.07;1.88;;;;;;;;;;4972103;28;25052;-76
2023/05/20 08:42:49;;;;;;;6.50;2.45;;;;;;;;;;4971120;28;25056;-73
2023/05/20 08:45:16;;;;;;;13.98;2.90;;;;;;;;;;4969054;28;25078;-78
2023/05/20 08:47:43;;;;;;;5.30;1.73;;;;;;;;;;4967309;28;25062;-74
2023/05/20 08:50:10;;;;;;;8.07;2.08;;;;;;;;;;4971835;28;25061;-78
2023/05/20 08:52:36;;;;;;;6.32;2.05;;;;;;;;;;4972134;28;25060;-73
2023/05/20 08:55:07;;;;;;;5.80;2.22;;;;;;;;;;4971275;28;25057;-76
2023/05/20 08:57:33;;;;;;;5.85;1.67;;;;;;;;;;4969620;28;25074;-73
2023/05/20 08:59:59;;;;;;;4.25;2.00;;;;;;;;;;4971352;28;25106;-73
2023/05/20 09:02:25;;;;;;;4.88;1.90;;;;;;;;;;4969612;28;25067;-75
2023/05/20 09:04:52;;;;;;;5.55;2.33;;;;;;;;;;4970901;28;25102;-74
2023/05/20 09:07:28;;;;;;;6.20;1.83;;;;;;;;;;4965722;28;25154;-77
2023/05/20 09:09:54;;;;;;;2.45;1.48;;;;;;;;;;4962290;28;25074;-76
2023/05/20 09:12:20;;;;;;;10.48;2.10;;;;;;;;;;4963675;28;25058;-75
2023/05/20 09:14:46;;;;;;;6.22;1.58;;;;;;;;;;4963104;28;25160;-76
2023/05/20 09:17:13;;;;;;;1.88;1.58;;;;;;;;;;4962850;28;25061;-76
2023/05/20 09:19:39;;;;;;;3.55;1.63;;;;;;;;;;4966021;28;25136;-78
2023/05/20 09:22:05;;;;;;;3.25;1.70;;;;;;;;;;4968780;28;25082;-76
2023/05/20 09:24:30;;;;;;;3.78;1.20;;;;;;;;;;4978617;28;25093;-76
2023/05/20 09:26:57;;;;;;;3.67;1.45;;;;;;;;;;4977330;28;25079;-76
2023/05/20 09:29:23;;;;;;;3.42;1.65;;;;;;;;;;4972207;28;25067;-80
2023/05/20 09:31:50;;;;;;;3.60;1.48;;;;;;;;;;4964645;28;25068;-74
2023/05/20 09:34:16;;;;;;;5.05;1.83;;;;;;;;;;4963708;28;25127;-76
2023/05/20 09:36:43;;;;;;;5.28;1.65;;;;;;;;;;4962966;28;25053;-74
2023/05/20 09:39:12;;;;;;;2.47;1.60;;;;;;;;;;4961687;28;25060;-76
2023/05/20 09:42:04;;;;;;;4.15;1.63;;;;;;;;;;4962366;28;25090;-75
2023/05/20 09:44:30;;;;;;;2.85;1.42;;;;;;;;;;4939782;28;25135;-77
2023/05/20 09:46:56;;;;;;;2.50;1.30;;;;;;;;;;4963729;28;25123;-74
2023/05/20 09:49:23;;;;;;;5.63;1.65;;;;;;;;;;4967442;28;25064;-78
2023/05/20 09:51:49;;;;;;;3.58;1.77;;;;;;;;;;4966207;28;25073;-73
2023/05/20 09:54:17;;;;;;;4.75;2.00;;;;;;;;;;4969565;28;25067;-72
2023/05/20 09:56:43;;;;;;;2.17;1.30;;;;;;;;;;4971052;28;25100;-74
2023/05/20 09:59:10;;;;;;;2.60;1.30;;;;;;;;;;4977313;28;25072;-78
2023/05/20 10:01:36;;;;;;;3.47;1.40;;;;;;;;;;4977038;28;25078;-75
2023/05/20 10:04:04;;;;;;;4.05;1.58;;;;;;;;;;4984656;28;25096;-76
2023/05/20 10:06:33;;;;;;;6.20;1.65;;;;;;;;;;4981416;28;25055;-76
2023/05/20 10:09:12;;;;;;;2.08;1.60;;;;;;;;;;4974246;28;25072;-74
2023/05/20 10:11:58;;;;;;;4.05;1.40;;;;;;;;;;4980840;28;25081;-77
2023/05/20 10:14:40;;;;;;;5.38;1.77;;;;;;;;;;4940606;28;25065;-77
2023/05/20 10:17:15;;;;;;;11.73;1.75;;;;;;;;;;4970989;28;25077;-76
2023/05/20 10:19:41;;;;;;;4.03;1.60;;;;;;;;;;4977320;28;25079;-75
2023/05/20 10:22:08;;;;;;;7.55;1.63;;;;;;;;;;4981647;28;25065;-76
2023/05/20 10:24:36;;;;;;;8.27;1.40;;;;;;;;;;4976554;28;25067;-75
2023/05/20 10:27:03;;;;;;;6.57;1.70;;;;;;;;;;4968528;28;25060;-75
2023/05/20 10:29:29;;;;;;;7.72;1.35;;;;;;;;;;4977342;28;25065;-75
2023/05/20 10:31:56;;;;;;;4.80;1.65;;;;;;;;;;4976857;28;25067;-75
2023/05/20 10:34:22;;;;;;;4.28;1.65;;;;;;;;;;4978284;28;25055;-76
2023/05/20 10:36:54;;;;;;;4.18;1.50;;;;;;;;;;4972246;28;25060;-76
2023/05/20 10:39:20;;;;;;;;;;;;;;;;;;4970322;28;25063;-75
2023/05/20 10:41:46;;;;;;;2.45;1.60;;;;;;;;;;4973767;28;25076;-75
2023/05/20 10:44:12;;;;;;;9.23;1.80;;;;;;;;;;4979257;28;25076;-75
2023/05/20 10:46:39;;;;;;;8.30;1.92;;;;;;;;;;4977421;28;25061;-75
2023/05/20 10:49:06;;;;;;;2.67;1.55;;;;;;;;;;4973930;28;25060;-77
2023/05/20 10:51:35;;;;;;;1.90;1.30;;;;;;;;;;4976102;28;25093;-75
2023/05/20 10:54:01;;;;;;;3.35;1.55;;;;;;;;;;4976015;28;25086;-78
2023/05/20 10:56:27;;;;;;;2.53;1.63;;;;;;;;;;4972061;28;25153;-77
2023/05/20 10:58:54;;;;;;;9.80;1.92;;;;;;;;;;4979870;28;25085;-79
2023/05/20 11:01:25;;;;;;;3.10;1.45;;;;;;;;;;4970922;28;25047;-78
2023/05/20 11:03:52;;;;;;;3.08;1.92;;;;;;;;;;4977672;28;25107;-79
2023/05/20 11:06:18;;;;;;;3.70;1.73;;;;;;;;;;4966974;28;25094;-75
2023/05/20 11:08:44;;;;;;;3.72;1.73;;;;;;;;;;4972275;28;25067;-76
2023/05/20 11:11:14;;;;;;;4.43;1.42;;;;;;;;;;4972372;28;25105;-74
2023/05/20 11:13:40;;;;;;;1.98;1.40;;;;;;;;;;4971007;28;25069;-75
2023/05/20 11:16:07;;;;;;;5.88;1.70;;;;;;;;;;4973223;28;25112;-76
2023/05/20 11:18:33;;;;;;;3.13;1.92;;;;;;;;;;4974447;28;25070;-72
2023/05/20 11:20:59;;;;;;;2.47;1.48;;;;;;;;;;4976012;28;25063;-74
2023/05/20 11:23:26;;;;;;;3.03;1.30;;;;;;;;;;4977503;28;25064;-77
2023/05/20 11:25:53;;;;;;;5.50;1.50;;;;;;;;;;4976290;28;25107;-77
2023/05/20 11:28:22;;;;;;;4.28;2.28;;;;;;;;;;4975469;28;25169;-73
2023/05/20 11:30:49;;;;;;;2.53;1.63;;;;;;;;;;4976226;28;25063;-75
2023/05/20 11:33:16;;;;;;;2.28;1.60;;;;;;;;;;4976694;28;25056;-77
2023/05/20 11:35:49;;;;;;;4.80;2.05;;;;;;;;;;4977244;28;25060;-75
2023/05/20 11:38:15;;;;;;;3.13;1.50;;;;;;;;;;4988291;28;25083;-77
2023/05/20 11:40:54;;;;;;;5.80;1.98;;;;;;;;;;4988443;28;25105;-77
2023/05/20 11:43:21;;;;;;;5.25;1.77;;;;;;;;;;4975066;28;25073;-76
2023/05/20 11:45:48;;;;;;;4.95;1.92;;;;;;;;;;4976244;28;25052;-76
2023/05/20 11:48:14;;;;;;;6.10;2.28;;;;;;;;;;4974911;28;25152;-78
2023/05/20 11:50:44;;;;;;;3.50;2.00;;;;;;;;;;4974298;28;25134;-77
2023/05/20 11:53:14;;;;;;;5.80;2.13;;;;;;;;;;4974965;28;25064;-77
2023/05/20 11:55:50;;;;;;;7.85;1.40;;;;;;;;;;4974251;28;25073;-77
2023/05/20 11:58:19;;;;;;;3.42;1.45;;;;;;;;;;4977823;28;25078;-76
2023/05/20 12:00:46;;;;;;;3.20;1.33;;;;;;;;;;4980727;28;25043;-77
2023/05/20 12:03:12;;;;;;;6.68;1.70;;;;;;;;;;4977596;28;25095;-77
2023/05/20 12:05:38;;;;;;;5.55;1.85;;;;;;;;;;4977470;28;25054;-78
2023/05/20 12:08:05;;;;;;;3.92;1.40;;;;;;;;;;4978051;28;25078;-77
2023/05/20 12:10:31;;;;;;;4.53;1.77;;;;;;;;;;4980115;28;25108;-78
2023/05/20 12:12:57;;;;;;;11.77;2.00;;;;;;;;;;4975440;28;25065;-73
2023/05/20 12:15:23;;;;;;;2.92;1.40;;;;;;;;;;4973339;28;25098;-76
2023/05/20 12:17:51;;;;;;;2.95;1.92;;;;;;;;;;4977012;28;25049;-75
2023/05/20 12:20:18;;;;;;;2.35;1.40;;;;;;;;;;4974346;28;25148;-76
2023/05/20 12:22:45;;;;;;;3.58;1.30;;;;;;;;;;4974996;28;25075;-75
2023/05/20 12:25:12;;;;;;;9.73;2.10;;;;;;;;;;4973670;28;25077;-74
2023/05/20 12:27:38;;;;;;;1.88;1.20;;;;;;;;;;4975130;28;25049;-73
2023/05/20 12:30:04;;;;;;;3.65;1.55;;;;;;;;;;4975887;28;25080;-75
2023/05/20 12:32:30;;;;;;;2.45;1.42;;;;;;;;;;4975746;28;25063;-72
2023/05/20 12:34:56;;;;;;;4.72;1.50;;;;;;;;;;4975452;28;25072;-76
2023/05/20 12:37:22;;;;;;;5.85;1.80;;;;;;;;;;4976652;28;25093;-76
2023/05/20 12:39:48;;;;;;;4.80;1.80;;;;;;;;;;4974581;28;25081;-78
2023/05/20 12:42:14;;;;;;;1.70;1.60;;;;;;;;;;4978403;28;25076;-75
2023/05/20 12:44:40;;;;;;;5.03;2.20;;;;;;;;;;4982721;28;25090;-72
2023/05/20 12:47:06;;;;;;;4.45;1.85;;;;;;;;;;4987421;28;25073;-72
2023/05/20 12:49:32;;;;;;;3.10;1.95;;;;;;;;;;4984350;28;25147;-78
2023/05/20 12:51:58;;;;;;;4.72;2.30;;;;;;;;;;4957027;28;25054;-76
2023/05/20 12:54:27;;;;;;;6.35;1.80;;;;;;;;;;4972832;28;25081;-75
2023/05/20 12:56:53;;;;;;;4.97;1.50;;;;;;;;;;4973840;28;25074;-74
2023/05/20 12:59:19;;;;;;;3.50;1.45;;;;;;;;;;4973068;28;25093;-74
2023/05/20 13:01:45;;;;;;;7.13;1.58;;;;;;;;;;4971684;28;25100;-76
2023/05/20 13:04:11;;;;;;;5.05;1.70;;;;;;;;;;4960570;28;25073;-76
2023/05/20 13:06:37;;;;;;;8.32;2.83;;;;;;;;;;4961649;28;25119;-76
2023/05/20 13:09:03;;;;;;;1.80;1.30;;;;;;;;;;4960771;28;25073;-73
2023/05/20 13:11:29;;;;;;;4.70;1.80;;;;;;;;;;4961948;28;25137;-74
2023/05/20 13:13:58;;;;;;;2.40;1.45;;;;;;;;;;4963116;28;25067;-75
2023/05/20 13:16:24;;;;;;;2.47;1.55;;;;;;;;;;4978597;28;25063;-75
2023/05/20 13:18:50;;;;;;;4.95;1.75;;;;;;;;;;4975957;28;25064;-75
2023/05/20 13:21:16;;;;;;;5.65;1.48;;;;;;;;;;4972076;28;25139;-78
2023/05/20 13:23:43;;;;;;;1.90;1.45;;;;;;;;;;4962845;28;25068;-76
2023/05/20 13:26:09;;;;;;;5.15;1.75;;;;;;;;;;4963152;28;25069;-79
2023/05/20 13:28:35;;;;;;;2.78;1.30;;;;;;;;;;4959495;28;25068;-78
2023/05/20 13:31:02;;;;;;;5.07;2.40;;;;;;;;;;4961800;28;25082;-75
2023/05/20 13:33:28;;;;;;;5.68;1.80;;;;;;;;;;4957286;28;25097;-75
2023/05/20 13:35:54;;;;;;;6.38;2.30;;;;;;;;;;4962823;28;25051;-77
2023/05/20 13:38:20;;;;;;;4.32;1.80;;;;;;;;;;4964354;28;25055;-71
2023/05/20 13:40:47;;;;;;;2.20;1.42;;;;;;;;;;4963778;28;25108;-76
2023/05/20 13:43:13;;;;;;;4.10;1.80;;;;;;;;;;4963395;28;25064;-76
2023/05/20 13:45:39;;;;;;;5.32;1.58;;;;;;;;;;4963924;28;25116;-75
2023/05/20 13:48:05;;;;;;;3.33;1.75;;;;;;;;;;4962349;28;25144;-75
2023/05/20 13:50:31;;;;;;;2.20;1.60;;;;;;;;;;4965576;28;25101;-78
2023/05/20 13:52:57;;;;;;;6.00;2.10;;;;;;;;;;4977758;28;25083;-76
2023/05/20 13:55:23;;;;;;;2.65;1.83;;;;;;;;;;4983617;28;25075;-74
2023/05/20 13:57:52;;;;;;;6.78;2.40;;;;;;;;;;4973568;28;25586;-74
2023/05/20 14:00:18;;;;;;;2.80;1.80;;;;;;;;;;4972754;28;25087;-76
2023/05/20 14:02:43;;;;;;;4.47;2.17;;;;;;;;;;4962180;28;25075;-76
2023/05/20 14:05:09;;;;;;;3.85;1.77;;;;;;;;;;4960249;28;25058;-74
2023/05/20 14:07:35;;;;;;;2.40;1.58;;;;;;;;;;4963200;28;25063;-73
2023/05/20 14:10:02;;;;;;;4.43;1.65;;;;;;;;;;4961759;28;25069;-77
2023/05/20 14:12:28;;;;;;;2.78;1.50;;;;;;;;;;4963332;28;25055;-77
2023/05/20 14:14:55;;;;;;;3.05;1.60;;;;;;;;;;4963575;28;25172;-76
2023/05/20 14:17:21;;;;;;;3.50;1.33;;;;;;;;;;4961711;28;25060;-76
2023/05/20 14:19:47;;;;;;;6.00;1.83;;;;;;;;;;4965409;28;25054;-75
2023/05/20 14:22:14;;;;;;;2.50;1.73;;;;;;;;;;4963540;28;25067;-75
2023/05/20 14:24:40;;;;;;;3.60;1.45;;;;;;;;;;4962311;28;25128;-74
2023/05/20 14:27:06;;;;;;;3.70;1.55;;;;;;;;;;4960800;28;25142;-75
2023/05/20 14:29:32;;;;;;;2.75;1.67;;;;;;;;;;4963757;28;25054;-75
2023/05/20 14:32:00;;;;;;;8.02;1.65;;;;;;;;;;4964426;28;25062;-75
2023/05/20 14:34:26;;;;;;;4.07;2.25;;;;;;;;;;4962196;28;25093;-76